KBXA/BXA METAR and TAF weather

Enter ICAO airport designator
Station Type Date Time Source
KBXA METAR 2019/10/16 19:15 UTC NOAA

KBXA 161915Z AUTO 35007KT 10SM OVC009 23/19 A2997 RMK AO2 T02300193


Station Type Date Time Source
KBXA Decoded METAR 2019/10/16 19:15 UTC NOAA

Bogalusa, George R Carr Memorial Air Field, LA, United States (KBXA) 30-48-49N 089-51-53W
Oct 16, 2019 - 03:15 PM EDT / 2019.10.16 1915 UTC
Wind: from the N (350 degrees) at 8 MPH (7 KT):0
Visibility: 10 mile(s):0
Sky conditions: overcast
Temperature: 73.4 F (23.0 C)
Dew Point: 66.7 F (19.3 C)
Relative Humidity: 79%
Pressure (altimeter): 29.97 in. Hg (1014 hPa)
ob: KBXA 161915Z AUTO 35007KT 10SM OVC009 23/19 A2997 RMK AO2 T02300193
cycle: 19

Station Type Date Time Source
KBXA TAF UTC NOAA

Error!

Example: see airport list